sensor_id;sensor_type;location;lat;lon;timestamp;P1;durP1;ratioP1;P2;durP2;ratioP2
36709;SDS011;22694;51.040;3.684;2022-09-27T00:00:59;0.98;;;0.38;;
36709;SDS011;22694;51.040;3.684;2022-09-27T00:03:25;1.38;;;0.30;;
36709;SDS011;22694;51.040;3.684;2022-09-27T00:06:01;1.52;;;0.40;;
36709;SDS011;22694;51.040;3.684;2022-09-27T00:08:29;1.33;;;0.30;;
36709;SDS011;22694;51.040;3.684;2022-09-27T00:10:59;2.90;;;0.55;;
36709;SDS011;22694;51.040;3.684;2022-09-27T00:13:47;2.20;;;0.50;;
36709;SDS011;22694;51.040;3.684;2022-09-27T00:16:13;1.20;;;0.40;;
36709;SDS011;22694;51.040;3.684;2022-09-27T00:18:38;1.23;;;0.30;;
36709;SDS011;22694;51.040;3.684;2022-09-27T00:21:05;1.23;;;0.43;;
36709;SDS011;22694;51.040;3.684;2022-09-27T00:23:32;1.05;;;0.40;;
36709;SDS011;22694;51.040;3.684;2022-09-27T00:25:58;2.38;;;0.52;;
36709;SDS011;22694;51.040;3.684;2022-09-27T00:28:25;1.90;;;0.70;;
36709;SDS011;22694;51.040;3.684;2022-09-27T00:30:51;1.38;;;0.30;;
36709;SDS011;22694;51.040;3.684;2022-09-27T00:33:18;1.83;;;0.50;;
36709;SDS011;22694;51.040;3.684;2022-09-27T00:35:44;1.95;;;0.50;;
36709;SDS011;22694;51.040;3.684;2022-09-27T00:38:10;1.30;;;0.40;;
36709;SDS011;22694;51.040;3.684;2022-09-27T00:40:36;0.70;;;0.30;;
36709;SDS011;22694;51.040;3.684;2022-09-27T00:43:07;1.38;;;0.50;;
36709;SDS011;22694;51.040;3.684;2022-09-27T00:45:53;0.88;;;0.30;;
36709;SDS011;22694;51.040;3.684;2022-09-27T00:48:24;2.00;;;0.35;;
36709;SDS011;22694;51.040;3.684;2022-09-27T00:50:54;1.42;;;0.50;;
36709;SDS011;22694;51.040;3.684;2022-09-27T00:53:30;1.92;;;0.40;;
36709;SDS011;22694;51.040;3.684;2022-09-27T00:56:11;0.93;;;0.30;;
36709;SDS011;22694;51.040;3.684;2022-09-27T00:58:46;2.00;;;0.35;;
36709;SDS011;22694;51.040;3.684;2022-09-27T01:01:18;0.88;;;0.47;;
36709;SDS011;22694;51.040;3.684;2022-09-27T01:04:17;0.85;;;0.32;;
36709;SDS011;22694;51.040;3.684;2022-09-27T01:06:39;0.95;;;0.43;;
36709;SDS011;22694;51.040;3.684;2022-09-27T01:09:05;1.92;;;0.32;;
36709;SDS011;22694;51.040;3.684;2022-09-27T01:17:23;2.83;;;0.77;;
36709;SDS011;22694;51.040;3.684;2022-09-27T01:25:52;0.82;;;0.35;;
36709;SDS011;22694;51.040;3.684;2022-09-27T01:31:36;1.20;;;0.35;;
36709;SDS011;22694;51.040;3.684;2022-09-27T01:36:56;1.48;;;0.35;;
36709;SDS011;22694;51.040;3.684;2022-09-27T01:47:14;0.52;;;0.30;;
36709;SDS011;22694;51.040;3.684;2022-09-27T01:52:17;0.88;;;0.22;;
36709;SDS011;22694;51.040;3.684;2022-09-27T01:54:47;1.75;;;0.65;;
36709;SDS011;22694;51.040;3.684;2022-09-27T01:57:19;1.40;;;0.30;;
36709;SDS011;22694;51.040;3.684;2022-09-27T02:00:12;0.98;;;0.30;;
36709;SDS011;22694;51.040;3.684;2022-09-27T02:02:45;0.50;;;0.30;;
36709;SDS011;22694;51.040;3.684;2022-09-27T02:05:41;2.22;;;0.30;;
36709;SDS011;22694;51.040;3.684;2022-09-27T02:08:17;2.75;;;0.30;;
36709;SDS011;22694;51.040;3.684;2022-09-27T02:10:58;1.05;;;0.28;;
36709;SDS011;22694;51.040;3.684;2022-09-27T02:19:32;1.23;;;0.30;;
36709;SDS011;22694;51.040;3.684;2022-09-27T02:30:07;2.08;;;0.43;;
36709;SDS011;22694;51.040;3.684;2022-09-27T02:32:36;1.67;;;0.25;;
36709;SDS011;22694;51.040;3.684;2022-09-27T02:35:04;1.17;;;0.28;;
36709;SDS011;22694;51.040;3.684;2022-09-27T02:37:34;0.90;;;0.27;;
36709;SDS011;22694;51.040;3.684;2022-09-27T02:39:59;2.42;;;0.40;;
36709;SDS011;22694;51.040;3.684;2022-09-27T02:42:25;0.85;;;0.38;;
36709;SDS011;22694;51.040;3.684;2022-09-27T02:44:52;0.35;;;0.20;;
36709;SDS011;22694;51.040;3.684;2022-09-27T02:47:31;0.55;;;0.20;;
36709;SDS011;22694;51.040;3.684;2022-09-27T02:55:24;1.42;;;0.40;;
36709;SDS011;22694;51.040;3.684;2022-09-27T03:01:01;0.47;;;0.20;;
36709;SDS011;22694;51.040;3.684;2022-09-27T03:03:37;1.80;;;0.30;;
36709;SDS011;22694;51.040;3.684;2022-09-27T03:06:23;2.03;;;0.28;;
36709;SDS011;22694;51.040;3.684;2022-09-27T03:08:49;2.63;;;0.35;;
36709;SDS011;22694;51.040;3.684;2022-09-27T03:11:15;1.90;;;0.32;;
36709;SDS011;22694;51.040;3.684;2022-09-27T03:13:42;1.50;;;0.20;;
36709;SDS011;22694;51.040;3.684;2022-09-27T03:16:08;1.80;;;0.40;;
36709;SDS011;22694;51.040;3.684;2022-09-27T03:18:34;1.05;;;0.55;;
36709;SDS011;22694;51.040;3.684;2022-09-27T03:20:59;0.60;;;0.40;;
36709;SDS011;22694;51.040;3.684;2022-09-27T03:23:25;1.63;;;0.30;;
36709;SDS011;22694;51.040;3.684;2022-09-27T03:25:51;1.38;;;0.30;;
36709;SDS011;22694;51.040;3.684;2022-09-27T03:28:17;1.05;;;0.30;;
36709;SDS011;22694;51.040;3.684;2022-09-27T03:30:43;0.70;;;0.28;;
36709;SDS011;22694;51.040;3.684;2022-09-27T03:33:10;1.05;;;0.40;;
36709;SDS011;22694;51.040;3.684;2022-09-27T03:35:35;0.90;;;0.28;;
36709;SDS011;22694;51.040;3.684;2022-09-27T03:38:01;3.13;;;0.50;;
36709;SDS011;22694;51.040;3.684;2022-09-27T03:40:27;1.65;;;0.50;;
36709;SDS011;22694;51.040;3.684;2022-09-27T03:42:53;0.90;;;0.28;;
36709;SDS011;22694;51.040;3.684;2022-09-27T03:45:19;0.90;;;0.35;;
36709;SDS011;22694;51.040;3.684;2022-09-27T03:47:44;2.00;;;0.35;;
36709;SDS011;22694;51.040;3.684;2022-09-27T03:50:10;0.60;;;0.45;;
36709;SDS011;22694;51.040;3.684;2022-09-27T03:52:36;1.15;;;0.60;;
36709;SDS011;22694;51.040;3.684;2022-09-27T03:55:02;2.25;;;0.50;;
36709;SDS011;22694;51.040;3.684;2022-09-27T03:57:28;2.03;;;0.30;;
36709;SDS011;22694;51.040;3.684;2022-09-27T03:59:54;3.30;;;0.88;;
36709;SDS011;22694;51.040;3.684;2022-09-27T04:02:20;0.73;;;0.30;;
36709;SDS011;22694;51.040;3.684;2022-09-27T04:04:46;2.13;;;0.40;;
36709;SDS011;22694;51.040;3.684;2022-09-27T04:07:11;1.83;;;0.30;;
36709;SDS011;22694;51.040;3.684;2022-09-27T04:09:37;2.75;;;0.50;;
36709;SDS011;22694;51.040;3.684;2022-09-27T04:12:03;1.42;;;0.40;;
36709;SDS011;22694;51.040;3.684;2022-09-27T04:14:29;2.30;;;0.57;;
36709;SDS011;22694;51.040;3.684;2022-09-27T04:16:54;0.70;;;0.40;;
36709;SDS011;22694;51.040;3.684;2022-09-27T04:19:20;2.35;;;0.32;;
36709;SDS011;22694;51.040;3.684;2022-09-27T04:21:46;2.05;;;0.43;;
36709;SDS011;22694;51.040;3.684;2022-09-27T04:24:11;1.23;;;0.38;;
36709;SDS011;22694;51.040;3.684;2022-09-27T04:26:37;2.22;;;0.70;;
36709;SDS011;22694;51.040;3.684;2022-09-27T04:29:04;2.15;;;0.50;;
36709;SDS011;22694;51.040;3.684;2022-09-27T04:31:30;1.75;;;0.30;;
36709;SDS011;22694;51.040;3.684;2022-09-27T04:33:55;0.82;;;0.40;;
36709;SDS011;22694;51.040;3.684;2022-09-27T04:36:21;0.57;;;0.10;;
36709;SDS011;22694;51.040;3.684;2022-09-27T04:38:51;4.38;;;0.55;;
36709;SDS011;22694;51.040;3.684;2022-09-27T04:41:21;1.05;;;0.40;;
36709;SDS011;22694;51.040;3.684;2022-09-27T04:43:47;3.78;;;0.45;;
36709;SDS011;22694;51.040;3.684;2022-09-27T04:46:14;1.33;;;0.45;;
36709;SDS011;22694;51.040;3.684;2022-09-27T04:48:40;0.80;;;0.35;;
36709;SDS011;22694;51.040;3.684;2022-09-27T04:51:05;0.70;;;0.40;;
36709;SDS011;22694;51.040;3.684;2022-09-27T04:53:31;1.77;;;0.50;;
36709;SDS011;22694;51.040;3.684;2022-09-27T04:55:57;0.35;;;0.20;;
36709;SDS011;22694;51.040;3.684;2022-09-27T04:58:23;1.50;;;0.63;;
36709;SDS011;22694;51.040;3.684;2022-09-27T05:00:49;0.80;;;0.50;;
36709;SDS011;22694;51.040;3.684;2022-09-27T05:03:16;0.50;;;0.30;;
36709;SDS011;22694;51.040;3.684;2022-09-27T05:05:43;1.02;;;0.38;;
36709;SDS011;22694;51.040;3.684;2022-09-27T05:08:09;1.48;;;0.40;;
36709;SDS011;22694;51.040;3.684;2022-09-27T05:10:35;1.55;;;0.52;;
36709;SDS011;22694;51.040;3.684;2022-09-27T05:13:01;1.45;;;0.40;;
36709;SDS011;22694;51.040;3.684;2022-09-27T05:15:26;3.33;;;0.63;;
36709;SDS011;22694;51.040;3.684;2022-09-27T05:17:52;1.15;;;0.35;;
36709;SDS011;22694;51.040;3.684;2022-09-27T05:20:18;1.80;;;0.38;;
36709;SDS011;22694;51.040;3.684;2022-09-27T05:22:44;1.75;;;0.60;;
36709;SDS011;22694;51.040;3.684;2022-09-27T05:25:10;0.77;;;0.45;;
36709;SDS011;22694;51.040;3.684;2022-09-27T05:27:36;0.70;;;0.47;;
36709;SDS011;22694;51.040;3.684;2022-09-27T05:30:03;1.40;;;0.35;;
36709;SDS011;22694;51.040;3.684;2022-09-27T05:32:30;1.75;;;0.47;;
36709;SDS011;22694;51.040;3.684;2022-09-27T05:34:56;2.13;;;0.50;;
36709;SDS011;22694;51.040;3.684;2022-09-27T05:37:21;1.58;;;0.55;;
36709;SDS011;22694;51.040;3.684;2022-09-27T05:39:47;1.63;;;0.30;;
36709;SDS011;22694;51.040;3.684;2022-09-27T05:42:13;1.73;;;0.60;;
36709;SDS011;22694;51.040;3.684;2022-09-27T05:44:40;0.82;;;0.47;;
36709;SDS011;22694;51.040;3.684;2022-09-27T05:47:06;0.40;;;0.30;;
36709;SDS011;22694;51.040;3.684;2022-09-27T05:49:32;1.45;;;0.73;;
36709;SDS011;22694;51.040;3.684;2022-09-27T05:51:58;2.20;;;0.68;;
36709;SDS011;22694;51.040;3.684;2022-09-27T05:54:24;1.35;;;0.50;;
36709;SDS011;22694;51.040;3.684;2022-09-27T05:56:53;1.90;;;0.55;;
36709;SDS011;22694;51.040;3.684;2022-09-27T05:59:22;2.83;;;0.65;;
36709;SDS011;22694;51.040;3.684;2022-09-27T06:01:49;1.63;;;0.60;;
36709;SDS011;22694;51.040;3.684;2022-09-27T06:04:15;3.58;;;0.40;;
36709;SDS011;22694;51.040;3.684;2022-09-27T06:06:41;1.02;;;0.63;;
36709;SDS011;22694;51.040;3.684;2022-09-27T06:09:11;1.63;;;0.70;;
36709;SDS011;22694;51.040;3.684;2022-09-27T06:11:39;1.83;;;0.57;;
36709;SDS011;22694;51.040;3.684;2022-09-27T06:14:08;1.70;;;0.60;;
36709;SDS011;22694;51.040;3.684;2022-09-27T06:16:33;1.48;;;0.60;;
36709;SDS011;22694;51.040;3.684;2022-09-27T06:18:59;1.63;;;0.50;;
36709;SDS011;22694;51.040;3.684;2022-09-27T06:21:25;1.80;;;0.60;;
36709;SDS011;22694;51.040;3.684;2022-09-27T06:23:52;1.33;;;0.60;;
36709;SDS011;22694;51.040;3.684;2022-09-27T06:26:19;1.30;;;0.52;;
36709;SDS011;22694;51.040;3.684;2022-09-27T06:28:46;2.35;;;0.60;;
36709;SDS011;22694;51.040;3.684;2022-09-27T06:31:11;3.05;;;0.50;;
36709;SDS011;22694;51.040;3.684;2022-09-27T06:33:38;1.38;;;0.43;;
36709;SDS011;22694;51.040;3.684;2022-09-27T06:36:04;1.23;;;0.45;;
36709;SDS011;22694;51.040;3.684;2022-09-27T06:38:31;0.60;;;0.40;;
36709;SDS011;22694;51.040;3.684;2022-09-27T06:40:59;1.15;;;0.60;;
36709;SDS011;22694;51.040;3.684;2022-09-27T06:43:26;0.73;;;0.40;;
36709;SDS011;22694;51.040;3.684;2022-09-27T06:45:52;0.70;;;0.30;;
36709;SDS011;22694;51.040;3.684;2022-09-27T06:48:18;0.80;;;0.40;;
36709;SDS011;22694;51.040;3.684;2022-09-27T06:50:45;1.35;;;0.68;;
36709;SDS011;22694;51.040;3.684;2022-09-27T06:53:13;0.98;;;0.50;;
36709;SDS011;22694;51.040;3.684;2022-09-27T06:55:40;1.35;;;0.55;;
36709;SDS011;22694;51.040;3.684;2022-09-27T06:58:06;1.17;;;0.38;;
36709;SDS011;22694;51.040;3.684;2022-09-27T07:00:52;1.67;;;0.60;;
36709;SDS011;22694;51.040;3.684;2022-09-27T07:03:19;2.90;;;0.52;;
36709;SDS011;22694;51.040;3.684;2022-09-27T07:05:53;1.35;;;0.68;;
36709;SDS011;22694;51.040;3.684;2022-09-27T07:08:20;1.10;;;0.63;;
36709;SDS011;22694;51.040;3.684;2022-09-27T07:10:46;3.03;;;1.05;;
36709;SDS011;22694;51.040;3.684;2022-09-27T07:13:13;1.52;;;0.73;;
36709;SDS011;22694;51.040;3.684;2022-09-27T07:15:39;1.63;;;0.70;;
36709;SDS011;22694;51.040;3.684;2022-09-27T07:18:06;2.22;;;0.90;;
36709;SDS011;22694;51.040;3.684;2022-09-27T07:20:33;3.88;;;0.77;;
36709;SDS011;22694;51.040;3.684;2022-09-27T07:23:01;2.72;;;0.70;;
36709;SDS011;22694;51.040;3.684;2022-09-27T07:25:28;1.17;;;0.63;;
36709;SDS011;22694;51.040;3.684;2022-09-27T07:27:54;1.20;;;0.50;;
36709;SDS011;22694;51.040;3.684;2022-09-27T07:30:26;1.60;;;0.70;;
36709;SDS011;22694;51.040;3.684;2022-09-27T07:32:58;3.70;;;0.55;;
36709;SDS011;22694;51.040;3.684;2022-09-27T07:35:27;1.98;;;0.70;;
36709;SDS011;22694;51.040;3.684;2022-09-27T07:37:54;1.58;;;0.68;;
36709;SDS011;22694;51.040;3.684;2022-09-27T07:40:20;3.47;;;0.57;;
36709;SDS011;22694;51.040;3.684;2022-09-27T07:42:46;1.70;;;0.70;;
36709;SDS011;22694;51.040;3.684;2022-09-27T07:45:11;1.45;;;0.70;;
36709;SDS011;22694;51.040;3.684;2022-09-27T07:47:38;3.13;;;0.82;;
36709;SDS011;22694;51.040;3.684;2022-09-27T07:50:06;5.20;;;0.98;;
36709;SDS011;22694;51.040;3.684;2022-09-27T07:52:39;3.47;;;1.00;;
36709;SDS011;22694;51.040;3.684;2022-09-27T07:55:07;3.35;;;1.02;;
36709;SDS011;22694;51.040;3.684;2022-09-27T07:57:37;2.20;;;0.80;;
36709;SDS011;22694;51.040;3.684;2022-09-27T08:00:04;2.22;;;0.85;;
36709;SDS011;22694;51.040;3.684;2022-09-27T08:02:32;3.15;;;0.88;;
36709;SDS011;22694;51.040;3.684;2022-09-27T08:04:58;3.28;;;0.80;;
36709;SDS011;22694;51.040;3.684;2022-09-27T08:07:24;2.50;;;0.70;;
36709;SDS011;22694;51.040;3.684;2022-09-27T08:09:51;4.28;;;0.90;;
36709;SDS011;22694;51.040;3.684;2022-09-27T08:12:16;3.88;;;0.70;;
36709;SDS011;22694;51.040;3.684;2022-09-27T08:14:42;1.33;;;0.70;;
36709;SDS011;22694;51.040;3.684;2022-09-27T08:17:10;1.50;;;0.95;;
36709;SDS011;22694;51.040;3.684;2022-09-27T08:19:37;4.20;;;0.88;;
36709;SDS011;22694;51.040;3.684;2022-09-27T08:22:03;1.45;;;0.60;;
36709;SDS011;22694;51.040;3.684;2022-09-27T08:24:29;2.33;;;0.80;;
36709;SDS011;22694;51.040;3.684;2022-09-27T08:26:54;3.55;;;0.70;;
36709;SDS011;22694;51.040;3.684;2022-09-27T08:29:20;1.38;;;0.60;;
36709;SDS011;22694;51.040;3.684;2022-09-27T08:31:45;1.42;;;0.68;;
36709;SDS011;22694;51.040;3.684;2022-09-27T08:34:12;2.03;;;0.90;;
36709;SDS011;22694;51.040;3.684;2022-09-27T08:36:37;1.98;;;0.70;;
36709;SDS011;22694;51.040;3.684;2022-09-27T08:39:03;1.92;;;0.63;;
36709;SDS011;22694;51.040;3.684;2022-09-27T08:41:40;2.85;;;0.70;;
36709;SDS011;22694;51.040;3.684;2022-09-27T08:44:43;1.70;;;0.70;;
36709;SDS011;22694;51.040;3.684;2022-09-27T08:47:15;1.30;;;0.70;;
36709;SDS011;22694;51.040;3.684;2022-09-27T08:54:57;2.30;;;0.70;;
36709;SDS011;22694;51.040;3.684;2022-09-27T08:57:26;1.65;;;0.55;;
36709;SDS011;22694;51.040;3.684;2022-09-27T08:59:54;1.40;;;0.60;;
36709;SDS011;22694;51.040;3.684;2022-09-27T09:02:29;4.25;;;0.80;;
36709;SDS011;22694;51.040;3.684;2022-09-27T09:04:57;1.77;;;0.80;;
36709;SDS011;22694;51.040;3.684;2022-09-27T09:07:41;1.75;;;0.90;;
36709;SDS011;22694;51.040;3.684;2022-09-27T09:10:27;0.90;;;0.40;;
36709;SDS011;22694;51.040;3.684;2022-09-27T09:16:25;1.65;;;0.70;;
36709;SDS011;22694;51.040;3.684;2022-09-27T09:19:31;2.13;;;0.70;;
36709;SDS011;22694;51.040;3.684;2022-09-27T09:25:12;1.10;;;0.80;;
36709;SDS011;22694;51.040;3.684;2022-09-27T09:30:29;1.40;;;0.60;;
36709;SDS011;22694;51.040;3.684;2022-09-27T09:33:24;1.52;;;0.50;;
36709;SDS011;22694;51.040;3.684;2022-09-27T09:36:01;2.88;;;0.68;;
36709;SDS011;22694;51.040;3.684;2022-09-27T09:38:49;1.80;;;0.73;;
36709;SDS011;22694;51.040;3.684;2022-09-27T09:41:21;1.40;;;0.60;;
36709;SDS011;22694;51.040;3.684;2022-09-27T09:46:43;0.93;;;0.60;;
36709;SDS011;22694;51.040;3.684;2022-09-27T09:49:15;2.58;;;0.70;;
36709;SDS011;22694;51.040;3.684;2022-09-27T09:51:50;1.27;;;0.63;;
36709;SDS011;22694;51.040;3.684;2022-09-27T09:54:56;3.17;;;0.85;;
36709;SDS011;22694;51.040;3.684;2022-09-27T09:57:24;1.33;;;0.60;;
36709;SDS011;22694;51.040;3.684;2022-09-27T10:00:02;1.83;;;0.40;;
36709;SDS011;22694;51.040;3.684;2022-09-27T10:02:41;1.55;;;0.55;;
36709;SDS011;22694;51.040;3.684;2022-09-27T10:05:09;0.47;;;0.47;;
36709;SDS011;22694;51.040;3.684;2022-09-27T10:07:42;1.33;;;0.65;;
36709;SDS011;22694;51.040;3.684;2022-09-27T10:10:15;1.30;;;0.50;;
36709;SDS011;22694;51.040;3.684;2022-09-27T10:12:42;1.70;;;0.60;;
36709;SDS011;22694;51.040;3.684;2022-09-27T10:15:12;0.98;;;0.50;;
36709;SDS011;22694;51.040;3.684;2022-09-27T10:17:41;2.33;;;0.50;;
36709;SDS011;22694;51.040;3.684;2022-09-27T10:23:03;2.33;;;0.70;;
36709;SDS011;22694;51.040;3.684;2022-09-27T10:28:30;2.35;;;0.63;;
36709;SDS011;22694;51.040;3.684;2022-09-27T10:31:02;0.90;;;0.40;;
36709;SDS011;22694;51.040;3.684;2022-09-27T10:33:33;1.00;;;0.43;;
36709;SDS011;22694;51.040;3.684;2022-09-27T10:36:02;1.02;;;0.40;;
36709;SDS011;22694;51.040;3.684;2022-09-27T10:38:35;0.70;;;0.50;;
36709;SDS011;22694;51.040;3.684;2022-09-27T10:43:47;0.40;;;0.22;;
36709;SDS011;22694;51.040;3.684;2022-09-27T10:52:03;1.00;;;0.38;;
36709;SDS011;22694;51.040;3.684;2022-09-27T10:54:52;0.50;;;0.40;;
36709;SDS011;22694;51.040;3.684;2022-09-27T10:57:20;1.33;;;0.52;;
36709;SDS011;22694;51.040;3.684;2022-09-27T10:59:52;0.47;;;0.30;;
36709;SDS011;22694;51.040;3.684;2022-09-27T11:02:21;1.13;;;0.60;;
36709;SDS011;22694;51.040;3.684;2022-09-27T11:07:57;1.23;;;0.50;;
36709;SDS011;22694;51.040;3.684;2022-09-27T11:13:10;0.75;;;0.30;;
36709;SDS011;22694;51.040;3.684;2022-09-27T11:18:16;0.88;;;0.55;;
36709;SDS011;22694;51.040;3.684;2022-09-27T11:45:39;1.80;;;0.50;;
36709;SDS011;22694;51.040;3.684;2022-09-27T11:59:26;2.15;;;0.40;;
36709;SDS011;22694;51.040;3.684;2022-09-27T12:10:38;0.88;;;0.35;;
36709;SDS011;22694;51.040;3.684;2022-09-27T12:13:09;0.43;;;0.32;;
36709;SDS011;22694;51.040;3.684;2022-09-27T12:15:39;0.75;;;0.30;;
36709;SDS011;22694;51.040;3.684;2022-09-27T12:18:09;1.83;;;0.68;;
36709;SDS011;22694;51.040;3.684;2022-09-27T12:20:37;0.70;;;0.30;;
36709;SDS011;22694;51.040;3.684;2022-09-27T12:23:20;1.30;;;0.47;;
36709;SDS011;22694;51.040;3.684;2022-09-27T12:25:47;0.55;;;0.20;;
36709;SDS011;22694;51.040;3.684;2022-09-27T12:28:25;0.52;;;0.30;;
36709;SDS011;22694;51.040;3.684;2022-09-27T12:31:20;1.35;;;0.40;;
36709;SDS011;22694;51.040;3.684;2022-09-27T12:34:23;1.80;;;0.50;;
36709;SDS011;22694;51.040;3.684;2022-09-27T12:37:03;1.00;;;0.50;;
36709;SDS011;22694;51.040;3.684;2022-09-27T12:39:52;0.77;;;0.40;;
36709;SDS011;22694;51.040;3.684;2022-09-27T12:42:50;1.00;;;0.57;;
36709;SDS011;22694;51.040;3.684;2022-09-27T12:51:21;1.23;;;0.60;;
36709;SDS011;22694;51.040;3.684;2022-09-27T12:54:02;2.38;;;0.50;;
36709;SDS011;22694;51.040;3.684;2022-09-27T13:13:00;1.17;;;0.55;;
36709;SDS011;22694;51.040;3.684;2022-09-27T13:18:00;1.50;;;0.30;;
36709;SDS011;22694;51.040;3.684;2022-09-27T13:20:37;1.45;;;0.50;;
36709;SDS011;22694;51.040;3.684;2022-09-27T13:25:47;2.70;;;0.50;;
36709;SDS011;22694;51.040;3.684;2022-09-27T13:30:58;1.65;;;0.70;;
36709;SDS011;22694;51.040;3.684;2022-09-27T13:41:25;1.23;;;0.57;;
36709;SDS011;22694;51.040;3.684;2022-09-27T13:44:11;2.30;;;0.80;;
36709;SDS011;22694;51.040;3.684;2022-09-27T13:49:34;0.85;;;0.55;;
36709;SDS011;22694;51.040;3.684;2022-09-27T13:52:03;1.00;;;0.50;;
36709;SDS011;22694;51.040;3.684;2022-09-27T14:00:05;1.05;;;0.68;;
36709;SDS011;22694;51.040;3.684;2022-09-27T14:08:42;1.83;;;0.40;;
36709;SDS011;22694;51.040;3.684;2022-09-27T14:11:13;1.40;;;0.47;;
36709;SDS011;22694;51.040;3.684;2022-09-27T14:13:44;0.70;;;0.32;;
36709;SDS011;22694;51.040;3.684;2022-09-27T14:16:13;0.85;;;0.47;;
36709;SDS011;22694;51.040;3.684;2022-09-27T14:18:45;1.75;;;0.40;;
36709;SDS011;22694;51.040;3.684;2022-09-27T14:26:45;2.47;;;0.60;;
36709;SDS011;22694;51.040;3.684;2022-09-27T14:29:15;1.25;;;0.50;;
36709;SDS011;22694;51.040;3.684;2022-09-27T14:31:45;2.58;;;0.65;;
36709;SDS011;22694;51.040;3.684;2022-09-27T14:34:13;1.10;;;0.52;;
36709;SDS011;22694;51.040;3.684;2022-09-27T14:36:39;2.30;;;0.60;;
36709;SDS011;22694;51.040;3.684;2022-09-27T14:39:29;1.65;;;0.52;;
36709;SDS011;22694;51.040;3.684;2022-09-27T14:41:59;1.63;;;0.60;;
36709;SDS011;22694;51.040;3.684;2022-09-27T14:44:27;3.72;;;0.50;;
36709;SDS011;22694;51.040;3.684;2022-09-27T14:47:07;0.55;;;0.43;;
36709;SDS011;22694;51.040;3.684;2022-09-27T14:49:34;2.05;;;0.60;;
36709;SDS011;22694;51.040;3.684;2022-09-27T14:52:14;1.83;;;0.60;;
36709;SDS011;22694;51.040;3.684;2022-09-27T14:54:42;2.42;;;0.60;;
36709;SDS011;22694;51.040;3.684;2022-09-27T14:57:08;3.08;;;0.70;;
36709;SDS011;22694;51.040;3.684;2022-09-27T14:59:36;1.60;;;0.43;;
36709;SDS011;22694;51.040;3.684;2022-09-27T15:02:10;2.17;;;0.50;;
36709;SDS011;22694;51.040;3.684;2022-09-27T15:04:42;0.73;;;0.40;;
36709;SDS011;22694;51.040;3.684;2022-09-27T15:07:10;0.80;;;0.50;;
36709;SDS011;22694;51.040;3.684;2022-09-27T15:09:37;1.08;;;0.57;;
36709;SDS011;22694;51.040;3.684;2022-09-27T15:12:04;2.80;;;0.60;;
36709;SDS011;22694;51.040;3.684;2022-09-27T15:14:32;2.55;;;0.57;;
36709;SDS011;22694;51.040;3.684;2022-09-27T15:19:31;1.50;;;0.65;;
36709;SDS011;22694;51.040;3.684;2022-09-27T15:22:41;0.77;;;0.50;;
36709;SDS011;22694;51.040;3.684;2022-09-27T15:25:14;1.40;;;0.80;;
36709;SDS011;22694;51.040;3.684;2022-09-27T15:27:46;1.33;;;0.50;;
36709;SDS011;22694;51.040;3.684;2022-09-27T15:30:23;2.95;;;0.60;;
36709;SDS011;22694;51.040;3.684;2022-09-27T15:32:52;1.13;;;0.80;;
36709;SDS011;22694;51.040;3.684;2022-09-27T15:35:29;0.65;;;0.32;;
36709;SDS011;22694;51.040;3.684;2022-09-27T15:38:21;1.33;;;0.57;;
36709;SDS011;22694;51.040;3.684;2022-09-27T15:40:58;0.98;;;0.60;;
36709;SDS011;22694;51.040;3.684;2022-09-27T15:49:12;2.00;;;0.70;;
36709;SDS011;22694;51.040;3.684;2022-09-27T15:51:47;2.47;;;0.60;;
36709;SDS011;22694;51.040;3.684;2022-09-27T15:54:21;2.05;;;0.60;;
36709;SDS011;22694;51.040;3.684;2022-09-27T15:56:49;1.83;;;0.70;;
36709;SDS011;22694;51.040;3.684;2022-09-27T15:59:24;0.98;;;0.40;;
36709;SDS011;22694;51.040;3.684;2022-09-27T16:01:55;2.15;;;0.90;;
36709;SDS011;22694;51.040;3.684;2022-09-27T16:04:23;3.85;;;0.85;;
36709;SDS011;22694;51.040;3.684;2022-09-27T16:06:50;4.70;;;0.75;;
36709;SDS011;22694;51.040;3.684;2022-09-27T16:09:18;1.90;;;0.90;;
36709;SDS011;22694;51.040;3.684;2022-09-27T16:11:45;2.70;;;0.93;;
36709;SDS011;22694;51.040;3.684;2022-09-27T16:14:11;1.98;;;0.88;;
36709;SDS011;22694;51.040;3.684;2022-09-27T16:16:41;3.55;;;1.00;;
36709;SDS011;22694;51.040;3.684;2022-09-27T16:19:15;2.58;;;0.65;;
36709;SDS011;22694;51.040;3.684;2022-09-27T16:21:41;3.35;;;1.02;;
36709;SDS011;22694;51.040;3.684;2022-09-27T16:24:08;2.47;;;0.90;;
36709;SDS011;22694;51.040;3.684;2022-09-27T16:26:34;2.13;;;0.80;;
36709;SDS011;22694;51.040;3.684;2022-09-27T16:29:00;3.15;;;0.65;;
36709;SDS011;22694;51.040;3.684;2022-09-27T16:31:26;2.65;;;0.93;;
36709;SDS011;22694;51.040;3.684;2022-09-27T16:33:52;2.05;;;0.88;;
36709;SDS011;22694;51.040;3.684;2022-09-27T16:36:18;3.22;;;1.00;;
36709;SDS011;22694;51.040;3.684;2022-09-27T16:38:48;2.80;;;0.73;;
36709;SDS011;22694;51.040;3.684;2022-09-27T16:41:15;2.60;;;1.27;;
36709;SDS011;22694;51.040;3.684;2022-09-27T16:43:41;2.15;;;1.05;;
36709;SDS011;22694;51.040;3.684;2022-09-27T16:46:09;2.30;;;1.10;;
36709;SDS011;22694;51.040;3.684;2022-09-27T16:48:37;1.90;;;0.73;;
36709;SDS011;22694;51.040;3.684;2022-09-27T16:51:03;2.60;;;0.93;;
36709;SDS011;22694;51.040;3.684;2022-09-27T16:53:58;5.15;;;1.60;;
36709;SDS011;22694;51.040;3.684;2022-09-27T16:56:24;3.08;;;1.10;;
36709;SDS011;22694;51.040;3.684;2022-09-27T16:58:51;3.47;;;1.25;;
36709;SDS011;22694;51.040;3.684;2022-09-27T17:01:17;1.27;;;0.88;;
36709;SDS011;22694;51.040;3.684;2022-09-27T17:03:47;3.13;;;0.73;;
36709;SDS011;22694;51.040;3.684;2022-09-27T17:06:14;2.47;;;1.15;;
36709;SDS011;22694;51.040;3.684;2022-09-27T17:08:40;4.93;;;1.20;;
36709;SDS011;22694;51.040;3.684;2022-09-27T17:11:06;4.47;;;1.25;;
36709;SDS011;22694;51.040;3.684;2022-09-27T17:13:45;2.42;;;0.82;;
36709;SDS011;22694;51.040;3.684;2022-09-27T17:16:13;3.85;;;1.02;;
36709;SDS011;22694;51.040;3.684;2022-09-27T17:18:39;3.55;;;0.80;;
36709;SDS011;22694;51.040;3.684;2022-09-27T17:21:06;2.25;;;0.98;;
36709;SDS011;22694;51.040;3.684;2022-09-27T17:23:33;5.65;;;1.17;;
36709;SDS011;22694;51.040;3.684;2022-09-27T17:26:03;1.48;;;0.90;;
36709;SDS011;22694;51.040;3.684;2022-09-27T17:28:30;1.15;;;0.90;;
36709;SDS011;22694;51.040;3.684;2022-09-27T17:31:03;1.52;;;0.80;;
36709;SDS011;22694;51.040;3.684;2022-09-27T17:33:32;3.70;;;1.05;;
36709;SDS011;22694;51.040;3.684;2022-09-27T17:36:07;1.45;;;0.90;;
36709;SDS011;22694;51.040;3.684;2022-09-27T17:38:34;1.35;;;0.70;;
36709;SDS011;22694;51.040;3.684;2022-09-27T17:41:01;2.42;;;0.90;;
36709;SDS011;22694;51.040;3.684;2022-09-27T17:43:28;1.83;;;1.02;;
36709;SDS011;22694;51.040;3.684;2022-09-27T17:46:02;1.92;;;1.00;;
36709;SDS011;22694;51.040;3.684;2022-09-27T17:48:28;3.13;;;0.70;;
36709;SDS011;22694;51.040;3.684;2022-09-27T17:51:12;1.20;;;0.70;;
36709;SDS011;22694;51.040;3.684;2022-09-27T17:53:38;5.03;;;1.20;;
36709;SDS011;22694;51.040;3.684;2022-09-27T17:56:04;1.27;;;0.65;;
36709;SDS011;22694;51.040;3.684;2022-09-27T17:58:30;2.28;;;1.08;;
36709;SDS011;22694;51.040;3.684;2022-09-27T18:01:05;1.90;;;1.00;;
36709;SDS011;22694;51.040;3.684;2022-09-27T18:03:34;0.80;;;0.60;;
36709;SDS011;22694;51.040;3.684;2022-09-27T18:06:06;3.28;;;1.55;;
36709;SDS011;22694;51.040;3.684;2022-09-27T18:08:33;2.88;;;0.80;;
36709;SDS011;22694;51.040;3.684;2022-09-27T18:11:03;2.10;;;1.15;;
36709;SDS011;22694;51.040;3.684;2022-09-27T18:13:36;4.10;;;1.20;;
36709;SDS011;22694;51.040;3.684;2022-09-27T18:16:13;2.78;;;1.10;;
36709;SDS011;22694;51.040;3.684;2022-09-27T18:18:41;3.03;;;0.93;;
36709;SDS011;22694;51.040;3.684;2022-09-27T18:21:13;1.83;;;1.00;;
36709;SDS011;22694;51.040;3.684;2022-09-27T18:23:40;1.50;;;1.02;;
36709;SDS011;22694;51.040;3.684;2022-09-27T18:26:08;3.08;;;1.10;;
36709;SDS011;22694;51.040;3.684;2022-09-27T18:28:35;3.30;;;1.13;;